Archival Weather

Sharurah

Sharurah, Saudi Arabia (OESH)

Report from: Tuesday, September 19, 2023 6:00 AM +03
Current time: Tuesday, July 16, 2024 1:22 PM +03

Current weather – Weather history – Daily summaries
Weather forecast

Temperature29.0°C (84.2°F)
Heat index27.5°C (81.6°F)
Dew point3.0°C (37.4°F)
Winds Calm
Clouds Sky clear
Altimeter29.77 in.Hg (1008 mB)
Relative humidity19 %
Density altitude1,900 ft. (579 m)
Remarks Ceiling and visibility OK
No significant changes expected in the next two hours
Flight conditions Visual Meteorological Conditions
Raw dataOESH 190300Z 00000KT CAVOK 29/03 Q1008 NOSIG
An error has occurred. This application may no longer respond until reloaded. Reload 🗙